Time;durP1;ratioP1;P1;durP2;ratioP2;P2;SDS_P1;SDS_P2;PMS_P1;PMS_P2;Temp;Humidity;BMP_temperature;BMP_pressure;BME280_temperature;BME280_humidity;BME280_pressure;Samples;Min_cycle;Max_cycle;Signal;HPM_P1;HPM_P2
2021/12/26 00:00:13;;;;;;;5.57;3.77;;;-8.30;99.90;;;;;;5049680;28;20193;-80
2021/12/26 00:02:39;;;;;;;5.73;3.73;;;-8.20;99.90;;;;;;5049581;28;20976;-82
2021/12/26 00:05:05;;;;;;;5.20;3.17;;;-8.30;99.90;;;;;;5033015;28;20182;-79
2021/12/26 00:07:30;;;;;;;7.93;3.70;;;-8.30;99.90;;;;;;5032222;28;21291;-79
2021/12/26 00:09:56;;;;;;;4.83;3.47;;;-8.30;99.90;;;;;;5049982;28;20265;-79
2021/12/26 00:12:22;;;;;;;5.13;3.90;;;-8.20;99.90;;;;;;5031724;28;20186;-78
2021/12/26 00:14:47;;;;;;;5.07;3.50;;;-8.20;99.90;;;;;;5049944;28;20266;-80
2021/12/26 00:17:13;;;;;;;4.90;3.67;;;-8.20;99.90;;;;;;5032012;28;20277;-80
2021/12/26 00:19:39;;;;;;;6.37;4.07;;;-8.30;99.90;;;;;;5032577;28;21257;-83
2021/12/26 00:22:05;;;;;;;7.10;4.23;;;-8.30;99.90;;;;;;5031167;28;20920;-79
2021/12/26 00:24:30;;;;;;;6.73;3.50;;;-8.40;99.90;;;;;;5049679;28;20202;-80
2021/12/26 00:26:56;;;;;;;5.53;3.60;;;-8.50;99.90;;;;;;5050046;28;20187;-79
2021/12/26 00:29:22;;;;;;;4.27;3.07;;;-8.40;99.90;;;;;;5049311;28;20222;-82
2021/12/26 00:31:47;;;;;;;5.27;3.60;;;-8.40;99.90;;;;;;5049353;28;20648;-78
2021/12/26 00:34:13;;;;;;;4.90;3.57;;;-8.40;99.90;;;;;;5049680;28;21087;-80
2021/12/26 00:36:39;;;;;;;7.20;3.80;;;-8.40;99.90;;;;;;5049056;28;20178;-82
2021/12/26 00:39:06;;;;;;;5.40;3.83;;;-8.40;99.90;;;;;;5049343;28;20192;-81
2021/12/26 00:41:33;;;;;;;4.53;3.33;;;-8.40;99.90;;;;;;5049057;28;20736;-82
2021/12/26 00:43:59;;;;;;;7.03;3.43;;;-8.50;99.90;;;;;;5049232;28;20220;-80
2021/12/26 00:46:24;;;;;;;7.10;3.50;;;-8.50;99.90;;;;;;5049252;28;20292;-82
2021/12/26 00:48:50;;;;;;;4.67;3.67;;;-8.50;99.90;;;;;;5031756;28;20263;-79
2021/12/26 00:51:15;;;;;;;4.40;3.40;;;-8.60;99.90;;;;;;5049411;28;20181;-80
2021/12/26 00:53:41;;;;;;;7.07;3.63;;;-8.60;99.90;;;;;;5049241;28;20217;-79
2021/12/26 00:56:07;;;;;;;6.73;3.60;;;-8.60;99.90;;;;;;5049340;28;20193;-80
2021/12/26 00:58:32;;;;;;;6.00;3.57;;;-8.60;99.90;;;;;;5048928;28;20233;-80
2021/12/26 01:00:58;;;;;;;7.27;3.73;;;-8.70;99.90;;;;;;5031212;28;20197;-79
2021/12/26 01:03:24;;;;;;;5.40;3.37;;;-8.70;99.90;;;;;;5031297;28;20213;-78
2021/12/26 01:05:53;;;;;;;4.70;3.00;;;-8.70;99.90;;;;;;5049453;28;20186;-78
2021/12/26 01:08:26;;;;;;;4.73;3.53;;;-8.60;99.90;;;;;;5030855;28;20557;-81
2021/12/26 01:10:58;;;;;;;5.40;3.30;;;-8.60;99.90;;;;;;5049283;28;20232;-79
2021/12/26 01:15:52;;;;;;;5.20;3.40;;;-8.60;99.90;;;;;;5048986;28;20204;-81
2021/12/26 01:18:19;;;;;;;6.27;3.67;;;-8.60;99.90;;;;;;5031332;28;20281;-81
2021/12/26 01:20:57;;;;;;;7.10;3.67;;;-8.70;99.90;;;;;;5030776;28;20551;-79
2021/12/26 01:23:25;;;;;;;5.73;3.30;;;-8.70;99.90;;;;;;5048412;28;20670;-79
2021/12/26 01:25:51;;;;;;;4.63;3.10;;;-8.70;99.90;;;;;;5048811;28;20199;-80
2021/12/26 01:28:18;;;;;;;7.20;4.03;;;-8.70;99.90;;;;;;5030449;28;20217;-79
2021/12/26 01:30:44;;;;;;;7.67;4.20;;;-8.80;99.90;;;;;;5048467;28;20189;-78
2021/12/26 01:33:14;;;;;;;7.83;4.00;;;-8.80;99.90;;;;;;5047382;28;21123;-79
2021/12/26 01:35:41;;;;;;;5.77;3.73;;;-8.80;99.90;;;;;;5048436;28;20190;-80
2021/12/26 01:38:10;;;;;;;4.57;3.70;;;-8.90;99.90;;;;;;5048469;28;20244;-81
2021/12/26 01:40:38;;;;;;;4.03;3.43;;;-8.90;99.90;;;;;;5048264;28;20676;-81
2021/12/26 01:43:04;;;;;;;5.27;3.67;;;-8.90;99.90;;;;;;5030752;28;20234;-78
2021/12/26 01:45:30;;;;;;;7.83;3.90;;;-9.00;99.90;;;;;;5031175;28;20678;-80
2021/12/26 01:47:59;;;;;;;5.03;4.23;;;-9.00;99.90;;;;;;5048567;28;20206;-82
2021/12/26 01:50:25;;;;;;;7.10;3.97;;;-9.00;99.90;;;;;;5030603;28;20235;-79
2021/12/26 01:52:50;;;;;;;7.60;3.97;;;-9.00;99.90;;;;;;5047855;28;20214;-80
2021/12/26 01:55:49;;;;;;;6.13;4.23;;;-8.90;99.90;;;;;;5047968;28;20198;-79
2021/12/26 01:58:19;;;;;;;6.77;3.80;;;-8.90;99.90;;;;;;5044470;28;20197;-80
2021/12/26 02:00:54;;;;;;;7.13;3.70;;;-8.80;99.90;;;;;;5046714;28;20212;-81
2021/12/26 02:03:21;;;;;;;5.67;3.30;;;-8.80;99.90;;;;;;5047865;28;20217;-78
2021/12/26 02:05:46;;;;;;;6.07;3.97;;;-8.70;99.90;;;;;;5047897;28;20197;-79
2021/12/26 02:08:12;;;;;;;5.07;3.37;;;-8.70;99.90;;;;;;5048019;28;20213;-79
2021/12/26 02:10:38;;;;;;;5.30;3.50;;;-8.60;99.90;;;;;;5029606;28;20280;-79
2021/12/26 02:13:04;;;;;;;9.97;4.57;;;-8.60;99.90;;;;;;5047345;28;20206;-80
2021/12/26 02:15:30;;;;;;;5.60;3.57;;;-8.40;99.90;;;;;;5047498;28;20833;-80
2021/12/26 02:17:56;;;;;;;9.63;4.23;;;-8.40;99.90;;;;;;5047682;28;20186;-82
2021/12/26 02:20:53;;;;;;;6.97;4.13;;;-8.30;99.90;;;;;;5047404;28;20186;-78
2021/12/26 02:23:41;;;;;;;6.73;4.03;;;-8.30;99.90;;;;;;5046960;28;20280;-79
2021/12/26 02:28:47;;;;;;;6.67;4.40;;;-8.30;99.90;;;;;;5047279;28;20279;-79
2021/12/26 02:31:15;;;;;;;7.17;4.27;;;-8.20;99.90;;;;;;5046708;28;20260;-80
2021/12/26 02:33:42;;;;;;;7.17;4.37;;;-8.20;99.90;;;;;;5029403;28;20721;-78
2021/12/26 02:36:08;;;;;;;6.67;4.07;;;-8.30;99.90;;;;;;5045395;28;20692;-81
2021/12/26 02:38:34;;;;;;;7.27;4.60;;;-8.20;99.90;;;;;;5047644;28;20194;-82
2021/12/26 02:41:01;;;;;;;6.13;4.63;;;-8.20;99.90;;;;;;5029420;28;20190;-79
2021/12/26 02:43:29;;;;;;;7.60;5.10;;;-8.20;99.90;;;;;;5047072;28;20206;-80
2021/12/26 02:45:55;;;;;;;7.60;4.17;;;-8.20;99.90;;;;;;5047429;28;20623;-79
2021/12/26 02:48:20;;;;;;;7.70;4.53;;;-8.30;99.90;;;;;;5047555;28;20202;-79
2021/12/26 02:50:52;;;;;;;8.37;4.23;;;-8.30;99.90;;;;;;5047272;28;20203;-80
2021/12/26 02:53:20;;;;;;;9.13;5.90;;;-8.30;99.90;;;;;;5047016;28;20684;-81
2021/12/26 02:55:51;;;;;;;8.40;4.97;;;-8.30;99.90;;;;;;5046922;28;20316;-81
2021/12/26 02:58:16;;;;;;;10.33;4.60;;;-8.40;99.90;;;;;;5047217;28;20182;-79
2021/12/26 03:00:47;;;;;;;7.47;3.97;;;-8.30;99.90;;;;;;5047104;28;20244;-78
2021/12/26 03:03:13;;;;;;;7.90;5.03;;;-8.30;99.90;;;;;;5046934;28;20203;-80
2021/12/26 03:05:41;;;;;;;9.47;5.33;;;-8.40;99.90;;;;;;5046895;28;20252;-80
2021/12/26 03:08:11;;;;;;;11.83;5.67;;;-8.40;99.90;;;;;;5046545;28;20202;-81
2021/12/26 03:10:39;;;;;;;11.10;5.33;;;-8.40;99.90;;;;;;5029109;28;20182;-82
2021/12/26 03:13:09;;;;;;;12.03;5.77;;;-8.30;99.90;;;;;;5046768;28;20289;-79
2021/12/26 03:15:35;;;;;;;7.07;4.50;;;-8.30;99.90;;;;;;5045132;28;20273;-80
2021/12/26 03:18:01;;;;;;;8.23;5.30;;;-8.30;99.90;;;;;;5029051;28;20637;-80
2021/12/26 03:20:32;;;;;;;12.23;5.57;;;-8.30;99.90;;;;;;5029094;28;20275;-80
2021/12/26 03:23:01;;;;;;;6.27;4.57;;;-8.30;99.90;;;;;;5046283;28;20818;-80
2021/12/26 03:25:28;;;;;;;9.70;5.70;;;-8.30;99.90;;;;;;5031414;28;20273;-83
2021/12/26 03:27:55;;;;;;;13.43;4.97;;;-8.20;99.90;;;;;;5050277;28;20229;-80
2021/12/26 03:30:26;;;;;;;7.87;4.93;;;-8.10;99.90;;;;;;5049755;28;20221;-81
2021/12/26 03:32:53;;;;;;;9.53;5.13;;;-8.20;99.90;;;;;;5049764;28;20229;-80
2021/12/26 03:35:20;;;;;;;9.10;4.40;;;-8.20;99.90;;;;;;5049305;28;20196;-79
2021/12/26 03:37:46;;;;;;;9.57;4.73;;;-8.30;99.90;;;;;;5032464;28;20192;-79
2021/12/26 03:40:12;;;;;;;8.17;5.50;;;-8.30;99.90;;;;;;5032688;28;20568;-80
2021/12/26 03:42:38;;;;;;;7.93;4.00;;;-8.30;99.90;;;;;;5050029;28;20597;-80
2021/12/26 03:45:07;;;;;;;6.73;4.03;;;-8.30;99.90;;;;;;5049928;28;20256;-79
2021/12/26 03:47:34;;;;;;;7.07;4.27;;;-8.20;99.90;;;;;;5049385;28;20679;-79
2021/12/26 03:50:00;;;;;;;7.50;4.80;;;-8.20;99.90;;;;;;5050164;28;20267;-81
2021/12/26 03:52:26;;;;;;;8.40;4.43;;;-8.10;99.90;;;;;;5032205;28;20232;-80
2021/12/26 03:54:54;;;;;;;8.07;3.87;;;-8.10;99.90;;;;;;5049891;28;20197;-80
2021/12/26 03:57:20;;;;;;;5.50;4.30;;;-8.10;99.90;;;;;;5049838;28;20201;-79
2021/12/26 03:59:46;;;;;;;9.20;4.50;;;-8.10;99.90;;;;;;5049774;28;20189;-80
2021/12/26 04:02:13;;;;;;;6.27;4.17;;;-8.10;99.90;;;;;;5032125;28;20204;-80
2021/12/26 04:04:39;;;;;;;6.17;4.10;;;-8.10;99.90;;;;;;5049196;28;20263;-79
2021/12/26 04:07:05;;;;;;;7.07;4.03;;;-8.00;99.90;;;;;;5048367;28;20194;-78
2021/12/26 04:09:31;;;;;;;6.73;3.70;;;-8.00;99.90;;;;;;5031459;28;20217;-82
2021/12/26 04:11:57;;;;;;;6.23;3.50;;;-8.10;99.90;;;;;;5031443;28;20186;-79
2021/12/26 04:14:22;;;;;;;6.33;3.50;;;-8.20;99.90;;;;;;5031272;28;20238;-80
2021/12/26 04:16:48;;;;;;;5.67;3.53;;;-8.20;99.90;;;;;;5049137;28;20620;-80
2021/12/26 04:19:14;;;;;;;6.67;3.80;;;-8.10;99.90;;;;;;5048982;28;20202;-80
2021/12/26 04:21:39;;;;;;;6.13;3.90;;;-8.20;99.90;;;;;;5049196;28;20457;-80
2021/12/26 04:24:06;;;;;;;6.13;3.73;;;-8.20;99.90;;;;;;5048866;28;20236;-82
2021/12/26 04:26:32;;;;;;;5.17;3.87;;;-8.20;99.90;;;;;;5031177;28;20289;-78
2021/12/26 04:28:58;;;;;;;6.20;4.13;;;-8.10;99.90;;;;;;5048840;28;20268;-78
2021/12/26 04:31:24;;;;;;;9.53;3.83;;;-8.10;99.90;;;;;;5048591;28;20193;-79
2021/12/26 04:33:50;;;;;;;5.07;3.40;;;-8.10;99.90;;;;;;5048913;28;20210;-79
2021/12/26 04:36:17;;;;;;;5.53;3.87;;;-8.10;99.90;;;;;;5031173;28;20667;-79
2021/12/26 04:38:44;;;;;;;8.60;4.00;;;-8.20;99.90;;;;;;5049019;28;20186;-82
2021/12/26 04:41:11;;;;;;;4.90;3.27;;;-8.10;99.90;;;;;;5048771;28;20679;-81
2021/12/26 04:43:38;;;;;;;5.30;3.17;;;-8.10;99.90;;;;;;5048687;28;20280;-80
2021/12/26 04:46:05;;;;;;;7.43;3.70;;;-8.00;99.90;;;;;;5048479;28;20190;-79
2021/12/26 04:48:33;;;;;;;7.17;3.70;;;-8.00;99.90;;;;;;5048477;28;20507;-79
2021/12/26 04:51:00;;;;;;;5.37;3.60;;;-8.00;99.90;;;;;;5047891;28;20195;-79
2021/12/26 04:53:25;;;;;;;5.53;3.57;;;-8.00;99.90;;;;;;5047857;28;20220;-80
2021/12/26 04:55:51;;;;;;;3.87;3.00;;;-8.00;99.90;;;;;;5048294;28;20190;-78
2021/12/26 04:58:17;;;;;;;4.27;3.20;;;-7.90;99.90;;;;;;5047991;28;20332;-79
2021/12/26 05:00:42;;;;;;;6.70;3.63;;;-8.00;99.90;;;;;;5048267;28;20215;-80
2021/12/26 05:03:08;;;;;;;5.83;3.67;;;-8.10;99.90;;;;;;5048286;28;20214;-78
2021/12/26 05:05:35;;;;;;;7.60;4.27;;;-8.20;99.90;;;;;;5030471;28;20236;-81
2021/12/26 05:08:01;;;;;;;5.23;3.30;;;-8.20;99.90;;;;;;5030616;28;20267;-80
2021/12/26 05:10:28;;;;;;;4.63;3.53;;;-8.30;99.90;;;;;;5030818;28;20182;-83
2021/12/26 05:13:00;;;;;;;6.37;4.20;;;-8.30;99.90;;;;;;5030475;28;20229;-79
2021/12/26 05:15:26;;;;;;;6.03;3.80;;;-8.30;99.90;;;;;;5047758;28;20217;-83
2021/12/26 05:17:53;;;;;;;6.90;4.50;;;-8.30;99.90;;;;;;5048047;28;20194;-79
2021/12/26 05:20:20;;;;;;;5.13;3.90;;;-8.30;99.90;;;;;;5047446;28;20656;-81
2021/12/26 05:22:48;;;;;;;7.03;4.77;;;-8.40;99.90;;;;;;5029870;28;20666;-81
2021/12/26 05:25:14;;;;;;;7.73;4.43;;;-8.40;99.90;;;;;;5047731;28;20225;-79
2021/12/26 05:27:40;;;;;;;8.80;4.10;;;-8.30;99.90;;;;;;5047351;28;20218;-79
2021/12/26 05:30:10;;;;;;;5.93;4.67;;;-8.30;99.90;;;;;;5047692;28;20247;-80
2021/12/26 05:32:36;;;;;;;7.37;4.40;;;-8.30;99.90;;;;;;5046875;28;20187;-79
2021/12/26 05:35:02;;;;;;;7.27;4.23;;;-8.40;99.90;;;;;;5029970;28;20247;-81
2021/12/26 05:37:28;;;;;;;8.13;4.93;;;-8.50;99.90;;;;;;5047432;28;20190;-80
2021/12/26 05:39:55;;;;;;;6.60;4.40;;;-8.50;99.90;;;;;;5029469;28;20273;-78
2021/12/26 05:42:20;;;;;;;5.40;3.43;;;-8.50;99.90;;;;;;5046926;28;20568;-78
2021/12/26 05:44:48;;;;;;;5.97;3.70;;;-8.50;99.90;;;;;;5047480;28;20206;-80
2021/12/26 05:47:14;;;;;;;7.67;4.63;;;-8.60;99.90;;;;;;5029230;28;20625;-79
2021/12/26 05:49:40;;;;;;;8.20;4.77;;;-8.60;99.90;;;;;;5047104;28;20324;-81
2021/12/26 05:52:07;;;;;;;7.27;5.07;;;-8.60;99.90;;;;;;5029433;28;20240;-78
2021/12/26 05:54:32;;;;;;;8.93;4.60;;;-8.70;99.90;;;;;;5046964;28;20588;-80
2021/12/26 05:56:58;;;;;;;7.60;5.20;;;-8.80;99.90;;;;;;5047323;28;20197;-81
2021/12/26 05:59:24;;;;;;;6.87;4.40;;;-8.80;99.90;;;;;;5029890;28;20285;-79
2021/12/26 06:01:50;;;;;;;7.93;5.60;;;-8.90;99.90;;;;;;5046333;28;20194;-83
2021/12/26 06:04:15;;;;;;;9.50;5.43;;;-8.90;99.90;;;;;;5046866;28;20260;-80
2021/12/26 06:06:43;;;;;;;7.63;4.00;;;-9.00;99.90;;;;;;5047440;28;20299;-79
2021/12/26 06:09:09;;;;;;;7.23;4.30;;;-9.10;99.90;;;;;;5030275;28;20209;-79
2021/12/26 06:11:34;;;;;;;8.83;5.30;;;-9.10;99.90;;;;;;5028956;28;20273;-79
2021/12/26 06:14:00;;;;;;;6.77;4.67;;;-9.10;99.90;;;;;;5047184;28;20217;-79
2021/12/26 06:16:25;;;;;;;11.10;4.77;;;-9.10;99.90;;;;;;5047244;28;20318;-79
2021/12/26 06:18:51;;;;;;;7.13;4.60;;;-9.20;99.90;;;;;;5046958;28;20203;-79
2021/12/26 06:21:17;;;;;;;8.57;4.03;;;-9.10;99.90;;;;;;5046505;28;20193;-80
2021/12/26 06:23:50;;;;;;;7.03;4.23;;;-9.10;99.90;;;;;;5047255;28;20614;-83
2021/12/26 06:26:18;;;;;;;8.87;5.13;;;-9.10;99.90;;;;;;5029372;28;20829;-82
2021/12/26 06:28:44;;;;;;;9.90;5.23;;;-9.10;99.90;;;;;;5045787;28;20221;-81
2021/12/26 06:31:09;;;;;;;10.60;5.50;;;-9.00;99.90;;;;;;5047049;28;20193;-79
2021/12/26 06:33:35;;;;;;;7.63;5.03;;;-9.00;99.90;;;;;;5028540;28;20296;-79
2021/12/26 06:36:01;;;;;;;9.03;5.73;;;-9.00;99.90;;;;;;5046293;28;20193;-80
2021/12/26 06:38:26;;;;;;;8.23;5.73;;;-9.00;99.90;;;;;;5046271;28;20640;-79
2021/12/26 06:40:52;;;;;;;8.73;5.30;;;-9.10;99.90;;;;;;5027883;28;20201;-80
2021/12/26 06:43:17;;;;;;;10.07;5.50;;;-9.10;99.90;;;;;;5029547;28;20261;-79
2021/12/26 06:45:43;;;;;;;10.73;5.90;;;-9.10;99.90;;;;;;5047521;28;20190;-79
2021/12/26 06:48:09;;;;;;;12.53;6.60;;;-9.10;99.90;;;;;;5029215;28;20214;-80
2021/12/26 06:50:36;;;;;;;9.60;5.80;;;-9.00;99.90;;;;;;5046557;28;20251;-83
2021/12/26 06:53:02;;;;;;;15.90;7.10;;;-9.10;99.90;;;;;;5046686;28;20205;-77
2021/12/26 06:55:28;;;;;;;12.97;7.70;;;-9.00;99.90;;;;;;5029293;28;20193;-79
2021/12/26 06:57:54;;;;;;;47.87;21.03;;;-9.00;99.90;;;;;;5046601;28;20563;-78
2021/12/26 07:00:20;;;;;;;51.33;23.10;;;-9.00;99.90;;;;;;5031003;28;20249;-81
2021/12/26 07:02:46;;;;;;;47.80;19.23;;;-9.00;99.90;;;;;;5050595;28;20951;-79
2021/12/26 07:05:12;;;;;;;54.53;19.57;;;-9.00;99.90;;;;;;5050618;28;20196;-79
2021/12/26 07:07:38;;;;;;;174.93;53.50;;;-9.10;99.90;;;;;;5050136;28;20199;-81
2021/12/26 07:10:05;;;;;;;119.93;47.43;;;-9.10;99.90;;;;;;5050622;28;20193;-79
2021/12/26 07:12:30;;;;;;;70.83;27.33;;;-9.10;99.90;;;;;;5050361;28;20201;-78
2021/12/26 07:14:56;;;;;;;90.30;34.23;;;-9.20;99.90;;;;;;5025156;28;20184;-79
2021/12/26 07:17:22;;;;;;;73.73;30.37;;;-9.20;99.90;;;;;;5026027;28;20939;-82
2021/12/26 07:19:47;;;;;;;69.77;30.73;;;-9.20;99.90;;;;;;5041649;28;20309;-81
2021/12/26 07:22:13;;;;;;;23.10;13.17;;;-9.20;99.90;;;;;;5025568;28;20194;-79
2021/12/26 07:24:43;;;;;;;16.57;10.37;;;-9.10;99.90;;;;;;5044594;28;20206;-81
2021/12/26 07:27:10;;;;;;;15.97;8.43;;;-9.10;99.90;;;;;;5049263;28;20636;-80
2021/12/26 07:29:36;;;;;;;14.43;9.93;;;-9.10;99.90;;;;;;5048635;28;20435;-82
2021/12/26 07:32:01;;;;;;;23.67;13.53;;;-9.10;99.90;;;;;;5049164;28;20640;-83
2021/12/26 07:34:27;;;;;;;19.80;11.43;;;-9.20;99.90;;;;;;5049810;28;20837;-79
2021/12/26 07:36:52;;;;;;;12.20;7.67;;;-9.10;99.90;;;;;;5050095;28;21065;-80
2021/12/26 07:39:18;;;;;;;23.90;14.70;;;-9.10;99.90;;;;;;5032128;28;20572;-80
2021/12/26 07:41:44;;;;;;;25.23;13.27;;;-9.10;99.90;;;;;;5049219;28;20280;-82
2021/12/26 07:44:09;;;;;;;20.70;12.97;;;-9.00;99.90;;;;;;5049922;28;20216;-80
2021/12/26 07:46:35;;;;;;;19.50;10.47;;;-9.10;99.90;;;;;;5031782;28;20190;-81
2021/12/26 07:49:00;;;;;;;35.60;17.67;;;-9.10;99.90;;;;;;5049937;28;20216;-80
2021/12/26 07:51:26;;;;;;;43.50;19.87;;;-9.00;99.90;;;;;;5049384;28;20199;-79
2021/12/26 07:53:52;;;;;;;24.60;12.47;;;-9.00;99.90;;;;;;5032214;28;20204;-80
2021/12/26 07:56:18;;;;;;;52.70;26.00;;;-8.90;99.90;;;;;;5031396;28;20263;-79
2021/12/26 07:58:44;;;;;;;50.40;23.00;;;-9.00;99.90;;;;;;5031625;28;20204;-79
2021/12/26 08:01:10;;;;;;;28.47;14.83;;;-8.90;99.90;;;;;;5031443;28;20198;-79
2021/12/26 08:03:36;;;;;;;26.93;13.50;;;-8.90;99.90;;;;;;5049092;28;20217;-82
2021/12/26 08:06:02;;;;;;;21.27;12.00;;;-8.90;99.90;;;;;;5049044;28;20190;-79
2021/12/26 08:08:28;;;;;;;19.83;9.60;;;-9.00;99.90;;;;;;5031225;28;20223;-78
2021/12/26 08:10:54;;;;;;;16.73;8.43;;;-9.00;99.90;;;;;;5048978;28;20193;-81
2021/12/26 08:13:19;;;;;;;13.67;8.23;;;-9.00;99.90;;;;;;5048853;28;20206;-79
2021/12/26 08:15:45;;;;;;;15.20;8.93;;;-8.90;99.90;;;;;;5049805;28;20193;-81
2021/12/26 08:18:11;;;;;;;13.70;8.17;;;-8.90;99.90;;;;;;5047421;28;20208;-78
2021/12/26 08:20:37;;;;;;;14.83;7.77;;;-8.90;99.90;;;;;;5048284;28;20202;-79
2021/12/26 08:23:04;;;;;;;13.83;7.90;;;-8.80;99.90;;;;;;5031637;28;20366;-79
2021/12/26 08:25:29;;;;;;;14.73;7.80;;;-8.80;99.90;;;;;;5048914;28;20214;-81
2021/12/26 08:27:55;;;;;;;16.20;9.83;;;-8.70;99.90;;;;;;5031138;28;20253;-77
2021/12/26 08:30:21;;;;;;;18.47;9.17;;;-8.70;99.90;;;;;;5029827;28;20687;-78
2021/12/26 08:32:51;;;;;;;17.03;13.00;;;-8.70;99.90;;;;;;5029364;28;20209;-78
2021/12/26 08:35:16;;;;;;;20.87;11.87;;;-8.60;99.90;;;;;;5047467;28;20178;-78
2021/12/26 08:37:42;;;;;;;18.30;10.53;;;-8.60;99.90;;;;;;5047218;28;20221;-78
2021/12/26 08:40:08;;;;;;;18.63;10.97;;;-8.60;99.90;;;;;;5046095;28;20193;-79
2021/12/26 08:42:34;;;;;;;13.33;8.27;;;-8.60;99.90;;;;;;5046052;28;20182;-78
2021/12/26 08:45:00;;;;;;;14.10;8.00;;;-8.50;99.90;;;;;;5047142;28;20189;-79
2021/12/26 08:47:26;;;;;;;10.13;7.03;;;-8.50;99.90;;;;;;5047043;28;20201;-77
2021/12/26 08:49:52;;;;;;;17.47;8.53;;;-8.40;99.90;;;;;;5047178;28;20206;-79
2021/12/26 08:52:17;;;;;;;12.17;7.67;;;-8.40;99.90;;;;;;5047145;28;20194;-77
2021/12/26 08:54:43;;;;;;;15.73;8.27;;;-8.30;99.90;;;;;;5027753;28;20307;-79
2021/12/26 08:57:10;;;;;;;16.60;9.00;;;-8.30;99.90;;;;;;5046379;28;20193;-79
2021/12/26 08:59:37;;;;;;;13.10;7.17;;;-8.30;99.90;;;;;;5046033;28;20197;-80
2021/12/26 09:02:04;;;;;;;11.77;6.87;;;-8.30;99.90;;;;;;5046815;28;20247;-81
2021/12/26 09:04:30;;;;;;;11.43;7.93;;;-8.30;99.90;;;;;;5027731;28;20629;-78
2021/12/26 09:06:56;;;;;;;13.97;7.80;;;-8.30;99.90;;;;;;5046580;28;20650;-77
2021/12/26 09:09:22;;;;;;;11.17;7.30;;;-8.30;99.90;;;;;;5044060;28;20681;-81
2021/12/26 09:11:48;;;;;;;14.73;8.33;;;-8.20;99.90;;;;;;5027952;28;20200;-80
2021/12/26 09:14:14;;;;;;;16.40;9.53;;;-8.20;99.90;;;;;;5046004;28;20289;-81
2021/12/26 09:16:39;;;;;;;19.90;13.30;;;-8.10;99.90;;;;;;5041980;28;20267;-78
2021/12/26 09:19:06;;;;;;;18.37;9.13;;;-8.10;99.90;;;;;;5021519;28;20480;-79
2021/12/26 09:21:32;;;;;;;14.17;9.57;;;-8.00;99.90;;;;;;5040899;28;20217;-79
2021/12/26 09:23:57;;;;;;;11.87;7.77;;;-7.80;99.90;;;;;;5023609;28;20210;-80
2021/12/26 09:26:23;;;;;;;16.00;10.33;;;-7.70;99.90;;;;;;5024002;28;20275;-80
2021/12/26 09:28:50;;;;;;;14.37;8.30;;;-7.70;99.90;;;;;;5040868;28;20224;-82
2021/12/26 09:31:15;;;;;;;15.33;7.27;;;-7.70;99.90;;;;;;5023551;28;20193;-79
2021/12/26 09:33:41;;;;;;;12.10;7.83;;;-7.60;99.90;;;;;;5041421;28;20206;-78
2021/12/26 09:36:07;;;;;;;12.43;8.00;;;-7.50;99.90;;;;;;5023417;28;20594;-79
2021/12/26 09:38:32;;;;;;;15.07;8.03;;;-7.50;99.90;;;;;;5041744;28;20201;-78
2021/12/26 09:40:59;;;;;;;14.17;7.33;;;-7.50;99.90;;;;;;5040299;28;20497;-79
2021/12/26 09:43:26;;;;;;;26.70;14.93;;;-7.40;99.90;;;;;;5041567;28;20206;-80
2021/12/26 09:45:52;;;;;;;16.17;10.47;;;-7.40;99.90;;;;;;5041263;28;20252;-80
2021/12/26 09:48:18;;;;;;;13.70;9.20;;;-7.20;99.90;;;;;;5040965;28;20214;-80
2021/12/26 09:50:44;;;;;;;16.33;9.87;;;-7.20;99.90;;;;;;5023369;28;20185;-79
2021/12/26 09:53:10;;;;;;;12.50;7.90;;;-7.10;99.90;;;;;;5023023;28;20206;-79
2021/12/26 09:55:35;;;;;;;14.97;9.87;;;-7.00;99.90;;;;;;5040682;28;20186;-79
2021/12/26 09:58:01;;;;;;;15.10;8.50;;;-6.90;99.90;;;;;;5045196;28;20190;-79
2021/12/26 10:00:37;;;;;;;13.97;8.30;;;-6.80;99.90;;;;;;5044959;28;20278;-79
2021/12/26 10:03:22;;;;;;;13.30;7.67;;;-6.90;99.90;;;;;;5026779;28;20255;-78
2021/12/26 10:06:09;;;;;;;16.73;8.00;;;-6.90;99.90;;;;;;5045923;28;20178;-81
2021/12/26 10:09:05;;;;;;;14.07;7.97;;;-6.90;99.90;;;;;;5028704;28;21079;-79
2021/12/26 10:11:33;;;;;;;17.93;9.63;;;-6.80;99.90;;;;;;5027623;28;20186;-80
2021/12/26 10:14:14;;;;;;;15.00;8.33;;;-6.70;99.90;;;;;;5046481;28;20206;-83
2021/12/26 10:16:46;;;;;;;19.47;10.97;;;-6.70;99.90;;;;;;5028401;28;20193;-79
2021/12/26 10:19:12;;;;;;;20.53;12.70;;;-6.60;99.90;;;;;;5046719;28;20194;-77
2021/12/26 10:21:42;;;;;;;19.83;9.83;;;-6.60;99.90;;;;;;5043681;28;21160;-78
2021/12/26 10:24:13;;;;;;;19.83;11.33;;;-6.60;99.90;;;;;;5045229;28;20213;-80
2021/12/26 10:26:41;;;;;;;17.00;8.97;;;-6.60;99.90;;;;;;5045502;28;20739;-79
2021/12/26 10:29:13;;;;;;;15.13;9.33;;;-6.50;99.90;;;;;;5028552;28;20688;-78
2021/12/26 10:32:03;;;;;;;14.47;9.73;;;-6.50;99.90;;;;;;5044466;28;20221;-78
2021/12/26 10:34:44;;;;;;;17.87;11.40;;;-6.40;99.90;;;;;;5027820;28;20293;-80
2021/12/26 10:37:18;;;;;;;14.00;8.37;;;-6.30;99.90;;;;;;5044938;28;20599;-77
2021/12/26 10:39:57;;;;;;;14.73;8.43;;;-6.30;99.90;;;;;;5044985;28;20821;-78
2021/12/26 10:42:32;;;;;;;14.53;8.67;;;-6.20;99.90;;;;;;5045010;28;20197;-78
2021/12/26 10:45:02;;;;;;;15.53;8.10;;;-6.10;99.90;;;;;;5044026;28;20659;-78
2021/12/26 10:47:30;;;;;;;14.93;8.67;;;-6.10;99.90;;;;;;5027505;28;20228;-80
2021/12/26 10:49:58;;;;;;;18.40;9.23;;;-6.00;99.90;;;;;;5027496;28;20566;-78
2021/12/26 10:52:36;;;;;;;14.53;8.27;;;-6.00;99.90;;;;;;5044817;28;20206;-78
2021/12/26 10:55:07;;;;;;;14.23;8.33;;;-5.90;99.90;;;;;;5027553;28;20188;-77
2021/12/26 10:57:39;;;;;;;15.57;8.40;;;-5.80;99.90;;;;;;5043569;28;20213;-78
2021/12/26 11:00:15;;;;;;;14.73;8.83;;;-5.70;99.90;;;;;;5044873;28;20437;-78
2021/12/26 11:02:45;;;;;;;15.13;9.50;;;-5.70;99.90;;;;;;5045640;28;20197;-78
2021/12/26 11:05:15;;;;;;;15.00;8.67;;;-5.70;99.90;;;;;;5046196;28;20174;-79
2021/12/26 11:07:50;;;;;;;12.57;7.10;;;-5.60;99.90;;;;;;5044594;28;20677;-79
2021/12/26 11:10:24;;;;;;;11.93;7.30;;;-5.50;99.90;;;;;;5026636;28;20177;-78
2021/12/26 11:12:56;;;;;;;14.93;9.10;;;-5.50;99.90;;;;;;5045002;28;20195;-79
2021/12/26 11:15:24;;;;;;;13.00;9.10;;;-5.50;99.90;;;;;;5045318;28;20677;-80
2021/12/26 11:18:01;;;;;;;13.67;7.47;;;-5.40;99.90;;;;;;5046290;28;20178;-82
2021/12/26 11:20:32;;;;;;;18.90;11.00;;;-5.30;99.90;;;;;;5043760;28;20174;-78
2021/12/26 11:23:00;;;;;;;20.73;14.20;;;-5.30;99.90;;;;;;5042724;28;20205;-79
2021/12/26 11:25:27;;;;;;;16.50;10.80;;;-5.30;99.90;;;;;;5044373;28;20244;-80
2021/12/26 11:27:53;;;;;;;24.33;16.67;;;-5.20;99.90;;;;;;5044049;28;20186;-80
2021/12/26 11:30:20;;;;;;;16.50;10.07;;;-5.10;99.90;;;;;;5027365;28;20255;-79
2021/12/26 11:32:46;;;;;;;13.50;7.90;;;-5.10;99.90;;;;;;5043542;28;20280;-79
2021/12/26 11:35:13;;;;;;;15.37;9.40;;;-5.00;99.90;;;;;;5044600;28;20179;-79
2021/12/26 11:37:40;;;;;;;15.00;9.17;;;-5.00;99.90;;;;;;5025910;28;20271;-77
2021/12/26 11:40:09;;;;;;;14.70;9.50;;;-4.90;99.90;;;;;;5042470;28;20182;-78
2021/12/26 11:42:57;;;;;;;14.13;8.83;;;-4.90;99.90;;;;;;5042237;28;20224;-79
2021/12/26 11:45:54;;;;;;;12.53;8.23;;;-4.80;99.90;;;;;;5040305;28;20190;-81
2021/12/26 11:48:59;;;;;;;12.23;7.90;;;-4.70;99.90;;;;;;5029721;28;20983;-80
2021/12/26 11:51:49;;;;;;;12.17;8.93;;;-4.70;99.90;;;;;;5028551;28;20182;-80
2021/12/26 11:54:46;;;;;;;15.50;8.27;;;-4.60;99.90;;;;;;5042507;28;20274;-79
2021/12/26 11:57:34;;;;;;;10.87;6.37;;;-4.50;99.90;;;;;;5038626;28;20221;-80
2021/12/26 12:00:04;;;;;;;10.73;7.13;;;-4.50;99.90;;;;;;5043269;28;20225;-81
2021/12/26 12:02:51;;;;;;;11.77;6.53;;;-4.50;99.90;;;;;;5043481;28;20182;-82
2021/12/26 12:05:24;;;;;;;10.17;6.57;;;-4.50;99.90;;;;;;5043764;28;20273;-79
2021/12/26 12:07:51;;;;;;;11.00;6.90;;;-4.40;99.90;;;;;;5041796;28;20284;-79
2021/12/26 12:10:33;;;;;;;13.13;6.10;;;-4.50;99.90;;;;;;5043433;28;20182;-82
2021/12/26 12:12:58;;;;;;;11.87;6.80;;;-4.50;99.90;;;;;;5042826;28;20236;-82
2021/12/26 12:15:45;;;;;;;11.80;7.93;;;-4.60;99.90;;;;;;5042846;28;20261;-78
2021/12/26 12:18:15;;;;;;;12.47;6.93;;;-4.60;99.90;;;;;;5042834;28;20763;-82
2021/12/26 12:20:41;;;;;;;10.87;6.90;;;-4.50;99.90;;;;;;5025396;28;20190;-79
2021/12/26 12:23:07;;;;;;;9.40;6.33;;;-4.40;99.90;;;;;;5040726;28;20214;-80
2021/12/26 12:25:36;;;;;;;9.63;6.03;;;-4.30;99.90;;;;;;5042505;28;20395;-79
2021/12/26 12:28:15;;;;;;;13.67;8.67;;;-4.30;99.90;;;;;;5042459;28;20212;-78
2021/12/26 12:30:43;;;;;;;12.80;7.97;;;-4.40;99.90;;;;;;5024905;28;20189;-81
2021/12/26 12:33:16;;;;;;;17.73;11.33;;;-4.30;99.90;;;;;;5042453;28;20687;-80
2021/12/26 12:36:00;;;;;;;18.07;11.20;;;-4.40;99.90;;;;;;5042344;28;20672;-81
2021/12/26 12:38:45;;;;;;;32.83;23.13;;;-4.40;99.90;;;;;;5042352;28;20189;-80
2021/12/26 12:41:30;;;;;;;10.87;7.40;;;-4.40;99.90;;;;;;5024730;28;20611;-81
2021/12/26 12:44:30;;;;;;;11.47;6.70;;;-4.40;99.90;;;;;;5040777;28;20201;-78
2021/12/26 12:46:58;;;;;;;8.97;6.20;;;-4.30;99.90;;;;;;5036139;28;20542;-81
2021/12/26 12:49:50;;;;;;;8.93;6.23;;;-4.30;99.90;;;;;;5041813;28;20206;-79
2021/12/26 12:52:36;;;;;;;7.27;5.50;;;-4.30;99.90;;;;;;5041650;28;20178;-79